Saturday, December 15, 2018, 1:45 PM GMT
Back to Local

CWPE, Point Lepreau, N. B.

Location: , , Canada Lat: 45.067
Local Time: 1:45 PM GMT (13:45 GMT) Lon: -66.467
Time Zone: GMT Elev: 3 ft

Show me the last for .
Show Coded

Time T Td Feel RH Dir Speed Gust Alt SLP Vis Weather Sky Remarks
2018-12-15 13:00 43 40 39 88 270° 6 - - 30.03 0 None
2018-12-15 12:00 42 40 39 90 280° 6 - - 30.03 0 None
2018-12-15 11:00 43 41 40 92 260° 5 - - 30.02 0 None
2018-12-15 10:00 44 41 40 89 260° 7 - - 30.03 0 None
2018-12-15 09:00 44 41 36 87 240° 9 20 - 30.03 0 Peak wind: 19 mph (17 kts) from 240° at 51 min
2018-12-15 08:00 45 41 36 87 230° 13 22 - 30.05 0 Peak wind: 23 mph (20 kts) from 220° at 07 min
2018-12-15 07:00 44 41 35 90 210° 14 20 - 30.07 0 Peak wind: 21 mph (19 kts) from 190° at 28 min
2018-12-15 06:00 43 40 34 88 210° 15 21 - 30.09 0 Peak wind: 23 mph (20 kts) from 210° at 33 min
2018-12-15 05:00 43 39 34 85 210° 14 20 - 30.13 0 Peak wind: 25 mph (22 kts) from 220° at 49 min
2018-12-15 04:00 42 38 33 82 210° 16 25 - 30.17 0 Peak wind: 25 mph (22 kts) from 180° at 05 min
2018-12-15 03:00 41 36 31 82 200° 16 24 - 30.21 0 Peak wind: 27 mph (24 kts) from 210° at 28 min
2018-12-15 02:00 40 35 30 79 200° 15 23 - 30.25 0 Peak wind: 23 mph (20 kts) from 190° at 30 min
2018-12-15 01:00 40 34 30 78 200° 15 25 - 30.29 0 Peak wind: 25 mph (22 kts) from 210° at 58 min
2018-12-15 00:00 41 35 30 78 200° 16 25 - 30.32 0 Peak wind: 26 mph (23 kts) from 190° at 44 min
2018-12-14 23:00 41 35 32 77 200° 15 21 - 30.33 0 Peak wind: 20 mph (18 kts) from 190° at 52 min
2018-12-14 22:00 41 34 32 75 220° 13 21 - 30.34 0 Peak wind: 20 mph (18 kts) from 240° at 38 min
2018-12-14 21:00 41 34 31 76 240° 12 20 - 30.38 0 Peak wind: 19 mph (17 kts) from 230° at 59 min
2018-12-14 20:00 40 33 35 75 240° 8 - - 30.39 0 Peak wind: 23 mph (20 kts) from 240° at 16 min
2018-12-14 19:00 40 34 31 78 240° 10 20 - 30.40 0 Peak wind: 20 mph (18 kts) from 250° at 15 min
2018-12-14 18:00 38 31 33 75 230° 8 - - 30.41 0 None
2018-12-14 17:00 35 29 31 77 260° 5 - - 30.44 0 None
2018-12-14 16:00 33 26 26 75 290° 8 - - 30.47 0 None
2018-12-14 15:00 30 24 26 78 310° 5 - - 30.49 0 None
2018-12-14 14:00 28 23 21 81 320° 6 - - 30.51 0 None

Support USWX by starting your Amazon purchase here.